sensor_id;sensor_type;location;lat;lon;timestamp;pressure;altitude;pressure_sealevel;temperature;humidity
84245;BME280;74383;44.552;18.100;2024-02-14T00:02:16;100274.13;;;4.23;78.95
84245;BME280;74383;44.552;18.100;2024-02-14T00:04:42;100273.16;;;4.24;79.05
84245;BME280;74383;44.552;18.100;2024-02-14T00:07:08;100279.03;;;4.10;78.72
84245;BME280;74383;44.552;18.100;2024-02-14T00:09:33;100273.91;;;4.08;79.19
84245;BME280;74383;44.552;18.100;2024-02-14T00:11:59;100285.16;;;3.92;79.47
84245;BME280;74383;44.552;18.100;2024-02-14T00:14:24;100284.00;;;3.61;79.87
84245;BME280;74383;44.552;18.100;2024-02-14T00:16:50;100282.09;;;3.71;79.99
84245;BME280;74383;44.552;18.100;2024-02-14T00:19:16;100281.13;;;3.72;80.39
84245;BME280;74383;44.552;18.100;2024-02-14T00:21:42;100286.06;;;3.75;80.00
84245;BME280;74383;44.552;18.100;2024-02-14T00:24:07;100289.25;;;3.61;79.62
84245;BME280;74383;44.552;18.100;2024-02-14T00:26:33;100291.72;;;3.63;79.58
84245;BME280;74383;44.552;18.100;2024-02-14T00:28:59;100292.53;;;3.63;78.90
84245;BME280;74383;44.552;18.100;2024-02-14T00:31:24;100295.75;;;3.49;79.37
84245;BME280;74383;44.552;18.100;2024-02-14T00:33:50;100293.91;;;3.67;79.09
84245;BME280;74383;44.552;18.100;2024-02-14T00:36:16;100291.88;;;3.61;78.61
84245;BME280;74383;44.552;18.100;2024-02-14T00:38:42;100291.72;;;3.63;78.65
84245;BME280;74383;44.552;18.100;2024-02-14T00:41:07;100295.13;;;3.55;79.00
84245;BME280;74383;44.552;18.100;2024-02-14T00:43:33;100297.00;;;3.45;79.67
84245;BME280;74383;44.552;18.100;2024-02-14T00:45:58;100290.28;;;3.43;79.71
84245;BME280;74383;44.552;18.100;2024-02-14T00:48:24;100286.28;;;3.56;78.98
84245;BME280;74383;44.552;18.100;2024-02-14T00:50:49;100298.19;;;3.51;79.15
84245;BME280;74383;44.552;18.100;2024-02-14T00:53:17;100299.09;;;3.59;79.23
84245;BME280;74383;44.552;18.100;2024-02-14T00:55:43;100297.78;;;3.63;79.71
84245;BME280;74383;44.552;18.100;2024-02-14T00:58:08;100302.28;;;3.71;78.94
84245;BME280;74383;44.552;18.100;2024-02-14T01:00:34;100302.44;;;3.69;79.28
84245;BME280;74383;44.552;18.100;2024-02-14T01:02:59;100302.13;;;3.72;79.61
84245;BME280;74383;44.552;18.100;2024-02-14T01:05:25;100301.19;;;3.81;79.28
84245;BME280;74383;44.552;18.100;2024-02-14T01:07:50;100309.56;;;3.77;79.68
84245;BME280;74383;44.552;18.100;2024-02-14T01:10:16;100299.19;;;3.75;79.59
84245;BME280;74383;44.552;18.100;2024-02-14T01:12:44;100301.84;;;3.83;79.10
84245;BME280;74383;44.552;18.100;2024-02-14T01:15:09;100301.19;;;3.81;79.22
84245;BME280;74383;44.552;18.100;2024-02-14T01:17:35;100299.53;;;3.80;79.83
84245;BME280;74383;44.552;18.100;2024-02-14T01:20:01;100294.75;;;3.76;79.67
84245;BME280;74383;44.552;18.100;2024-02-14T01:22:28;100302.13;;;3.72;79.68
84245;BME280;74383;44.552;18.100;2024-02-14T01:24:53;100304.00;;;3.80;79.55
84245;BME280;74383;44.552;18.100;2024-02-14T01:27:19;100304.09;;;3.70;80.24
84245;BME280;74383;44.552;18.100;2024-02-14T01:29:48;100312.97;;;3.77;80.79
84245;BME280;74383;44.552;18.100;2024-02-14T01:32:14;100309.66;;;3.67;80.24
84245;BME280;74383;44.552;18.100;2024-02-14T01:34:39;100310.31;;;3.69;80.79
84245;BME280;74383;44.552;18.100;2024-02-14T01:37:08;100310.50;;;3.76;81.01
84245;BME280;74383;44.552;18.100;2024-02-14T01:39:35;100308.19;;;3.73;80.42
84245;BME280;74383;44.552;18.100;2024-02-14T01:42:01;100305.72;;;3.71;81.21
84245;BME280;74383;44.552;18.100;2024-02-14T01:44:26;100309.25;;;3.80;80.62
84245;BME280;74383;44.552;18.100;2024-02-14T01:46:52;100310.56;;;3.84;80.54
84245;BME280;74383;44.552;18.100;2024-02-14T01:49:18;100310.09;;;3.88;80.49
84245;BME280;74383;44.552;18.100;2024-02-14T01:51:44;100310.59;;;3.92;79.74
84245;BME280;74383;44.552;18.100;2024-02-14T01:54:12;100305.47;;;3.82;79.09
84245;BME280;74383;44.552;18.100;2024-02-14T01:56:39;100307.38;;;3.72;79.97
84245;BME280;74383;44.552;18.100;2024-02-14T01:59:05;100311.19;;;3.78;79.21
84245;BME280;74383;44.552;18.100;2024-02-14T02:01:32;100314.28;;;3.73;78.61
84245;BME280;74383;44.552;18.100;2024-02-14T02:03:59;100314.94;;;3.75;79.26
84245;BME280;74383;44.552;18.100;2024-02-14T02:06:24;100319.97;;;3.69;79.89
84245;BME280;74383;44.552;18.100;2024-02-14T02:08:51;100326.38;;;3.66;79.71
84245;BME280;74383;44.552;18.100;2024-02-14T02:11:17;100321.72;;;3.60;80.07
84245;BME280;74383;44.552;18.100;2024-02-14T02:13:43;100321.13;;;3.66;79.27
84245;BME280;74383;44.552;18.100;2024-02-14T02:16:09;100323.28;;;3.71;79.10
84245;BME280;74383;44.552;18.100;2024-02-14T02:18:34;100321.78;;;3.68;79.50
84245;BME280;74383;44.552;18.100;2024-02-14T02:21:00;100319.00;;;3.70;78.89
84245;BME280;74383;44.552;18.100;2024-02-14T02:23:29;100325.78;;;3.55;79.72
84245;BME280;74383;44.552;18.100;2024-02-14T02:25:55;100323.69;;;3.58;80.23
84245;BME280;74383;44.552;18.100;2024-02-14T02:28:20;100331.59;;;3.66;80.13
84245;BME280;74383;44.552;18.100;2024-02-14T02:30:46;100331.41;;;3.60;80.50
84245;BME280;74383;44.552;18.100;2024-02-14T02:33:11;100343.50;;;3.53;80.78
84245;BME280;74383;44.552;18.100;2024-02-14T02:35:41;100329.16;;;3.65;80.39
84245;BME280;74383;44.552;18.100;2024-02-14T02:38:07;100338.25;;;3.78;79.76
84245;BME280;74383;44.552;18.100;2024-02-14T02:40:33;100327.44;;;3.81;79.80
84245;BME280;74383;44.552;18.100;2024-02-14T02:42:58;100331.41;;;3.85;79.67
84245;BME280;74383;44.552;18.100;2024-02-14T02:45:24;100339.09;;;3.79;79.57
84245;BME280;74383;44.552;18.100;2024-02-14T02:47:50;100346.78;;;3.80;79.44
84245;BME280;74383;44.552;18.100;2024-02-14T02:50:17;100345.81;;;3.81;79.34
84245;BME280;74383;44.552;18.100;2024-02-14T02:52:42;100343.81;;;3.75;80.06
84245;BME280;74383;44.552;18.100;2024-02-14T02:55:08;100346.31;;;3.77;79.44
84245;BME280;74383;44.552;18.100;2024-02-14T02:57:34;100356.63;;;3.78;80.25
84245;BME280;74383;44.552;18.100;2024-02-14T03:00:03;100361.13;;;3.86;79.39
84245;BME280;74383;44.552;18.100;2024-02-14T03:02:30;100359.59;;;3.83;79.49
84245;BME280;74383;44.552;18.100;2024-02-14T03:04:56;100361.25;;;3.84;79.77
84245;BME280;74383;44.552;18.100;2024-02-14T03:07:22;100352.56;;;3.84;79.75
84245;BME280;74383;44.552;18.100;2024-02-14T03:09:48;100357.28;;;3.80;79.81
84245;BME280;74383;44.552;18.100;2024-02-14T03:12:14;100354.66;;;3.80;80.16
84245;BME280;74383;44.552;18.100;2024-02-14T03:14:41;100360.31;;;3.85;80.26
84245;BME280;74383;44.552;18.100;2024-02-14T03:17:09;100357.38;;;3.88;79.89
84245;BME280;74383;44.552;18.100;2024-02-14T03:19:35;100367.69;;;3.64;79.72
84245;BME280;74383;44.552;18.100;2024-02-14T03:22:04;100367.16;;;3.61;80.36
84245;BME280;74383;44.552;18.100;2024-02-14T03:24:31;100373.19;;;3.53;80.46
84245;BME280;74383;44.552;18.100;2024-02-14T03:26:57;100367.16;;;3.61;80.74
84245;BME280;74383;44.552;18.100;2024-02-14T03:29:22;100374.53;;;3.57;80.33
84245;BME280;74383;44.552;18.100;2024-02-14T03:31:48;100377.38;;;3.64;80.37
84245;BME280;74383;44.552;18.100;2024-02-14T03:34:14;100378.03;;;3.66;80.15
84245;BME280;74383;44.552;18.100;2024-02-14T03:36:40;100377.97;;;3.58;80.25
84245;BME280;74383;44.552;18.100;2024-02-14T03:39:06;100388.03;;;3.45;80.68
84245;BME280;74383;44.552;18.100;2024-02-14T03:41:32;100392.06;;;3.57;80.87
84245;BME280;74383;44.552;18.100;2024-02-14T03:43:57;100388.63;;;3.56;79.51
84245;BME280;74383;44.552;18.100;2024-02-14T03:46:28;100397.53;;;3.63;79.44
84245;BME280;74383;44.552;18.100;2024-02-14T03:48:54;100394.84;;;3.55;79.82
84245;BME280;74383;44.552;18.100;2024-02-14T03:51:20;100397.31;;;3.39;80.37
84245;BME280;74383;44.552;18.100;2024-02-14T03:53:47;100401.66;;;3.48;80.66
84245;BME280;74383;44.552;18.100;2024-02-14T03:56:13;100394.97;;;3.54;80.10
84245;BME280;74383;44.552;18.100;2024-02-14T03:58:39;100403.59;;;3.64;79.79
84245;BME280;74383;44.552;18.100;2024-02-14T04:01:05;100406.91;;;3.66;79.29
84245;BME280;74383;44.552;18.100;2024-02-14T04:03:31;100411.72;;;3.53;79.53
84245;BME280;74383;44.552;18.100;2024-02-14T04:05:56;100414.50;;;3.51;79.52
84245;BME280;74383;44.552;18.100;2024-02-14T04:08:23;100413.75;;;3.59;79.90
84245;BME280;74383;44.552;18.100;2024-02-14T04:10:49;100424.59;;;3.64;80.18
84245;BME280;74383;44.552;18.100;2024-02-14T04:13:19;100419.72;;;3.69;80.05
84245;BME280;74383;44.552;18.100;2024-02-14T04:15:45;100417.41;;;3.66;79.26
84245;BME280;74383;44.552;18.100;2024-02-14T04:18:11;100417.41;;;3.66;79.46
84245;BME280;74383;44.552;18.100;2024-02-14T04:20:37;100423.84;;;3.71;79.92
84245;BME280;74383;44.552;18.100;2024-02-14T04:23:03;100417.31;;;3.75;79.68
84245;BME280;74383;44.552;18.100;2024-02-14T04:25:32;100419.63;;;3.78;79.35
84245;BME280;74383;44.552;18.100;2024-02-14T04:27:57;100423.91;;;3.79;79.09
84245;BME280;74383;44.552;18.100;2024-02-14T04:30:25;100430.69;;;3.64;79.92
84245;BME280;74383;44.552;18.100;2024-02-14T04:32:50;100427.84;;;3.58;80.34
84245;BME280;74383;44.552;18.100;2024-02-14T04:35:20;100424.06;;;3.60;80.22
84245;BME280;74383;44.552;18.100;2024-02-14T04:37:46;100432.84;;;3.51;79.98
84245;BME280;74383;44.552;18.100;2024-02-14T04:40:13;100451.09;;;3.53;80.33
84245;BME280;74383;44.552;18.100;2024-02-14T04:42:40;100437.13;;;3.52;80.83
84245;BME280;74383;44.552;18.100;2024-02-14T04:45:06;100446.13;;;3.50;80.18
84245;BME280;74383;44.552;18.100;2024-02-14T04:47:32;100445.31;;;3.49;80.47
84245;BME280;74383;44.552;18.100;2024-02-14T04:49:58;100449.72;;;3.49;79.80
84245;BME280;74383;44.552;18.100;2024-02-14T04:52:23;100450.03;;;3.46;80.82
84245;BME280;74383;44.552;18.100;2024-02-14T04:54:49;100458.13;;;3.52;80.79
84245;BME280;74383;44.552;18.100;2024-02-14T04:57:14;100455.44;;;3.44;79.99
84245;BME280;74383;44.552;18.100;2024-02-14T04:59:40;100451.16;;;3.43;80.60
84245;BME280;74383;44.552;18.100;2024-02-14T05:02:06;100458.25;;;3.51;80.16
84245;BME280;74383;44.552;18.100;2024-02-14T05:04:32;100456.94;;;3.47;80.20
84245;BME280;74383;44.552;18.100;2024-02-14T05:07:00;100455.88;;;3.40;80.47
84245;BME280;74383;44.552;18.100;2024-02-14T05:09:26;100465.94;;;3.44;80.31
84245;BME280;74383;44.552;18.100;2024-02-14T05:11:51;100467.50;;;3.37;80.32
84245;BME280;74383;44.552;18.100;2024-02-14T05:14:17;100467.47;;;3.19;80.76
84245;BME280;74383;44.552;18.100;2024-02-14T05:16:43;100466.88;;;3.25;80.57
84245;BME280;74383;44.552;18.100;2024-02-14T05:19:08;100463.44;;;3.25;80.39
84245;BME280;74383;44.552;18.100;2024-02-14T05:21:34;100466.56;;;3.11;81.04
84245;BME280;74383;44.552;18.100;2024-02-14T05:24:00;100469.25;;;3.19;81.21
84245;BME280;74383;44.552;18.100;2024-02-14T05:26:26;100469.94;;;3.21;81.18
84245;BME280;74383;44.552;18.100;2024-02-14T05:28:52;100472.38;;;3.05;81.10
84245;BME280;74383;44.552;18.100;2024-02-14T05:31:17;100478.50;;;2.96;81.70
84245;BME280;74383;44.552;18.100;2024-02-14T05:33:43;100484.09;;;3.10;81.17
84245;BME280;74383;44.552;18.100;2024-02-14T05:36:08;100480.63;;;3.10;81.00
84245;BME280;74383;44.552;18.100;2024-02-14T05:38:34;100469.84;;;3.13;81.46
84245;BME280;74383;44.552;18.100;2024-02-14T05:40:59;100484.72;;;3.22;80.91
84245;BME280;74383;44.552;18.100;2024-02-14T05:43:25;100486.19;;;3.24;81.25
84245;BME280;74383;44.552;18.100;2024-02-14T05:45:51;100489.00;;;3.23;81.17
84245;BME280;74383;44.552;18.100;2024-02-14T05:48:16;100490.63;;;3.24;80.94
84245;BME280;74383;44.552;18.100;2024-02-14T05:50:42;100487.31;;;3.22;79.92
84245;BME280;74383;44.552;18.100;2024-02-14T05:53:08;100488.44;;;3.19;80.53
84245;BME280;74383;44.552;18.100;2024-02-14T05:55:33;100495.94;;;3.14;80.26
84245;BME280;74383;44.552;18.100;2024-02-14T05:57:59;100497.81;;;3.22;80.16
84245;BME280;74383;44.552;18.100;2024-02-14T06:00:25;100506.72;;;2.84;81.63
84245;BME280;74383;44.552;18.100;2024-02-14T06:02:52;100509.75;;;2.79;82.42
84245;BME280;74383;44.552;18.100;2024-02-14T06:05:17;100508.06;;;2.88;82.07
84245;BME280;74383;44.552;18.100;2024-02-14T06:07:43;100523.56;;;2.82;81.55
84245;BME280;74383;44.552;18.100;2024-02-14T06:10:12;100508.72;;;2.63;81.59
84245;BME280;74383;44.552;18.100;2024-02-14T06:12:38;100510.78;;;2.59;82.03
84245;BME280;74383;44.552;18.100;2024-02-14T06:15:06;100513.78;;;2.74;80.61
84245;BME280;74383;44.552;18.100;2024-02-14T06:17:33;100511.06;;;2.66;80.90
84245;BME280;74383;44.552;18.100;2024-02-14T06:19:58;100513.56;;;2.58;80.96
84245;BME280;74383;44.552;18.100;2024-02-14T06:22:25;100519.09;;;2.55;80.66
84245;BME280;74383;44.552;18.100;2024-02-14T06:24:51;100514.09;;;2.61;80.46
84245;BME280;74383;44.552;18.100;2024-02-14T06:27:16;100522.38;;;2.66;80.89
84245;BME280;74383;44.552;18.100;2024-02-14T06:29:43;100519.38;;;2.52;80.84
84245;BME280;74383;44.552;18.100;2024-02-14T06:32:09;100521.09;;;2.70;80.77
84245;BME280;74383;44.552;18.100;2024-02-14T06:34:34;100534.47;;;2.67;80.64
84245;BME280;74383;44.552;18.100;2024-02-14T06:37:00;100536.72;;;2.62;80.53
84245;BME280;74383;44.552;18.100;2024-02-14T06:39:26;100527.06;;;2.63;80.81
84245;BME280;74383;44.552;18.100;2024-02-14T06:41:52;100537.53;;;2.72;80.26
84245;BME280;74383;44.552;18.100;2024-02-14T06:44:18;100547.28;;;2.70;80.05
84245;BME280;74383;44.552;18.100;2024-02-14T06:46:44;100547.44;;;2.69;80.55
84245;BME280;74383;44.552;18.100;2024-02-14T06:49:09;100554.66;;;2.57;80.69
84245;BME280;74383;44.552;18.100;2024-02-14T06:51:35;100556.34;;;2.39;81.25
84245;BME280;74383;44.552;18.100;2024-02-14T06:54:02;100552.78;;;2.40;82.21
84245;BME280;74383;44.552;18.100;2024-02-14T06:56:30;100564.88;;;2.41;81.32
84245;BME280;74383;44.552;18.100;2024-02-14T06:58:56;100561.84;;;2.55;81.62
84245;BME280;74383;44.552;18.100;2024-02-14T07:01:29;100562.53;;;2.48;81.07
84245;BME280;74383;44.552;18.100;2024-02-14T07:03:55;100566.09;;;2.56;82.18
84245;BME280;74383;44.552;18.100;2024-02-14T07:06:20;100563.19;;;2.69;81.18
84245;BME280;74383;44.552;18.100;2024-02-14T07:08:46;100568.53;;;2.77;81.21
84245;BME280;74383;44.552;18.100;2024-02-14T07:11:13;100563.81;;;2.90;80.78
84245;BME280;74383;44.552;18.100;2024-02-14T07:13:42;100563.94;;;2.89;80.34
84245;BME280;74383;44.552;18.100;2024-02-14T07:16:08;100575.81;;;2.93;80.48
84245;BME280;74383;44.552;18.100;2024-02-14T07:18:35;100571.50;;;3.01;80.23
84245;BME280;74383;44.552;18.100;2024-02-14T07:21:00;100579.06;;;3.04;81.06
84245;BME280;74383;44.552;18.100;2024-02-14T07:23:29;100582.38;;;3.06;80.49
84245;BME280;74383;44.552;18.100;2024-02-14T07:25:56;100577.13;;;3.06;81.01
84245;BME280;74383;44.552;18.100;2024-02-14T07:28:22;100585.44;;;2.55;83.08
84245;BME280;74383;44.552;18.100;2024-02-14T07:30:49;100578.00;;;2.32;83.60
84245;BME280;74383;44.552;18.100;2024-02-14T07:33:15;100588.47;;;2.41;84.20
84245;BME280;74383;44.552;18.100;2024-02-14T07:35:41;100577.16;;;2.41;83.50
84245;BME280;74383;44.552;18.100;2024-02-14T07:38:08;100582.53;;;2.49;83.58
84245;BME280;74383;44.552;18.100;2024-02-14T07:40:34;100577.31;;;2.39;84.54
84245;BME280;74383;44.552;18.100;2024-02-14T07:43:00;100581.66;;;2.67;84.24
84245;BME280;74383;44.552;18.100;2024-02-14T07:45:26;100589.75;;;2.84;83.06
84245;BME280;74383;44.552;18.100;2024-02-14T07:47:52;100579.00;;;2.87;82.13
84245;BME280;74383;44.552;18.100;2024-02-14T07:50:17;100583.06;;;3.08;82.61
84245;BME280;74383;44.552;18.100;2024-02-14T07:52:44;100581.38;;;3.17;81.22
84245;BME280;74383;44.552;18.100;2024-02-14T07:55:11;100586.81;;;3.33;80.57
84245;BME280;74383;44.552;18.100;2024-02-14T07:57:38;100585.06;;;3.24;80.80
84245;BME280;74383;44.552;18.100;2024-02-14T08:00:08;100587.84;;;3.22;81.13
84245;BME280;74383;44.552;18.100;2024-02-14T08:02:34;100583.56;;;3.12;81.04
84245;BME280;74383;44.552;18.100;2024-02-14T08:05:00;100587.28;;;3.19;81.07
84245;BME280;74383;44.552;18.100;2024-02-14T08:07:26;100581.38;;;3.17;80.20
84245;BME280;74383;44.552;18.100;2024-02-14T08:09:52;100591.00;;;3.26;80.46
84245;BME280;74383;44.552;18.100;2024-02-14T08:12:18;100594.78;;;3.41;80.37
84245;BME280;74383;44.552;18.100;2024-02-14T08:14:44;100585.25;;;3.13;80.46
84245;BME280;74383;44.552;18.100;2024-02-14T08:17:09;100588.53;;;3.15;81.42
84245;BME280;74383;44.552;18.100;2024-02-14T08:19:35;100595.69;;;2.86;82.15
84245;BME280;74383;44.552;18.100;2024-02-14T08:22:01;100587.88;;;3.13;81.71
84245;BME280;74383;44.552;18.100;2024-02-14T08:24:27;100586.91;;;3.41;81.14
84245;BME280;74383;44.552;18.100;2024-02-14T08:26:54;100591.09;;;3.61;81.01
84245;BME280;74383;44.552;18.100;2024-02-14T08:29:20;100585.19;;;3.77;80.09
84245;BME280;74383;44.552;18.100;2024-02-14T08:31:46;100586.53;;;3.81;80.20
84245;BME280;74383;44.552;18.100;2024-02-14T08:34:12;100582.34;;;4.06;79.78
84245;BME280;74383;44.552;18.100;2024-02-14T08:36:37;100578.66;;;3.99;80.79
84245;BME280;74383;44.552;18.100;2024-02-14T08:39:07;100580.56;;;4.24;79.90
84245;BME280;74383;44.552;18.100;2024-02-14T08:41:43;100578.66;;;4.34;79.57
84245;BME280;74383;44.552;18.100;2024-02-14T08:44:10;100574.91;;;4.36;78.69
84245;BME280;74383;44.552;18.100;2024-02-14T08:46:36;100577.66;;;4.53;78.12
84245;BME280;74383;44.552;18.100;2024-02-14T08:49:01;100573.22;;;4.10;78.89
84245;BME280;74383;44.552;18.100;2024-02-14T08:51:28;100567.09;;;4.44;79.10
84245;BME280;74383;44.552;18.100;2024-02-14T08:53:54;100564.41;;;4.36;78.90
84245;BME280;74383;44.552;18.100;2024-02-14T08:56:22;100569.38;;;4.65;78.79
84245;BME280;74383;44.552;18.100;2024-02-14T08:58:48;100573.38;;;4.77;79.71
84245;BME280;74383;44.552;18.100;2024-02-14T09:01:14;100572.22;;;5.05;78.02
84245;BME280;74383;44.552;18.100;2024-02-14T09:03:44;100574.94;;;5.22;77.73
84245;BME280;74383;44.552;18.100;2024-02-14T09:06:14;100570.09;;;5.43;76.42
84245;BME280;74383;44.552;18.100;2024-02-14T09:08:41;100571.91;;;5.50;75.82
84245;BME280;74383;44.552;18.100;2024-02-14T09:11:08;100568.66;;;5.56;75.25
84245;BME280;74383;44.552;18.100;2024-02-14T09:13:34;100570.19;;;5.67;74.32
84245;BME280;74383;44.552;18.100;2024-02-14T09:16:00;100569.03;;;5.78;73.69
84245;BME280;74383;44.552;18.100;2024-02-14T09:18:26;100565.75;;;5.84;73.92
84245;BME280;74383;44.552;18.100;2024-02-14T09:20:52;100571.06;;;5.92;75.13
84245;BME280;74383;44.552;18.100;2024-02-14T09:23:18;100563.34;;;6.31;73.87
84245;BME280;74383;44.552;18.100;2024-02-14T09:25:48;100559.72;;;6.40;73.55
84245;BME280;74383;44.552;18.100;2024-02-14T09:28:17;100569.63;;;6.46;73.57
84245;BME280;74383;44.552;18.100;2024-02-14T09:30:44;100572.03;;;6.88;73.97
84245;BME280;74383;44.552;18.100;2024-02-14T09:33:10;100557.19;;;7.34;71.88
84245;BME280;74383;44.552;18.100;2024-02-14T09:35:36;100560.50;;;7.36;71.67
84245;BME280;74383;44.552;18.100;2024-02-14T09:38:04;100565.41;;;7.47;71.74
84245;BME280;74383;44.552;18.100;2024-02-14T09:40:29;100558.72;;;7.59;71.65
84245;BME280;74383;44.552;18.100;2024-02-14T09:42:56;100562.22;;;8.05;69.23
84245;BME280;74383;44.552;18.100;2024-02-14T09:45:26;100548.97;;;8.35;69.88
84245;BME280;74383;44.552;18.100;2024-02-14T09:47:53;100551.84;;;8.49;67.16
84245;BME280;74383;44.552;18.100;2024-02-14T09:50:20;100545.50;;;8.87;67.69
84245;BME280;74383;44.552;18.100;2024-02-14T09:52:49;100538.81;;;9.06;65.82
84245;BME280;74383;44.552;18.100;2024-02-14T09:55:15;100538.66;;;8.92;65.28
84245;BME280;74383;44.552;18.100;2024-02-14T09:57:42;100541.97;;;9.60;64.75
84245;BME280;74383;44.552;18.100;2024-02-14T10:00:11;100540.38;;;9.65;62.78
84245;BME280;74383;44.552;18.100;2024-02-14T10:02:40;100540.25;;;9.88;63.82
84245;BME280;74383;44.552;18.100;2024-02-14T10:05:06;100534.88;;;10.45;61.06
84245;BME280;74383;44.552;18.100;2024-02-14T10:07:43;100536.91;;;10.71;57.46
84245;BME280;74383;44.552;18.100;2024-02-14T10:10:09;100539.53;;;10.43;58.06
84245;BME280;74383;44.552;18.100;2024-02-14T10:12:35;100539.66;;;10.84;59.52
84245;BME280;74383;44.552;18.100;2024-02-14T10:15:01;100523.94;;;11.30;55.45
84245;BME280;74383;44.552;18.100;2024-02-14T10:17:27;100516.03;;;11.49;52.29
84245;BME280;74383;44.552;18.100;2024-02-14T10:20:00;100519.88;;;11.81;51.13
84245;BME280;74383;44.552;18.100;2024-02-14T10:22:36;100519.13;;;11.53;51.31
84245;BME280;74383;44.552;18.100;2024-02-14T10:25:06;100514.56;;;12.20;46.50
84245;BME280;74383;44.552;18.100;2024-02-14T10:27:39;100506.19;;;12.17;46.17
84245;BME280;74383;44.552;18.100;2024-02-14T10:30:05;100505.59;;;12.08;48.87
84245;BME280;74383;44.552;18.100;2024-02-14T10:32:35;100499.63;;;12.39;50.07
84245;BME280;74383;44.552;18.100;2024-02-14T10:35:06;100496.09;;;12.71;48.86
84245;BME280;74383;44.552;18.100;2024-02-14T10:37:37;100487.88;;;12.93;47.38
84245;BME280;74383;44.552;18.100;2024-02-14T10:40:04;100484.75;;;13.02;45.59
84245;BME280;74383;44.552;18.100;2024-02-14T10:42:30;100498.00;;;13.35;46.83
84245;BME280;74383;44.552;18.100;2024-02-14T10:44:56;100499.25;;;13.70;43.07
84245;BME280;74383;44.552;18.100;2024-02-14T10:47:30;100490.94;;;13.85;44.35
84245;BME280;74383;44.552;18.100;2024-02-14T10:50:00;100502.75;;;14.27;41.88
84245;BME280;74383;44.552;18.100;2024-02-14T10:52:31;100499.31;;;13.95;38.96
84245;BME280;74383;44.552;18.100;2024-02-14T10:54:59;100500.34;;;13.63;40.86
84245;BME280;74383;44.552;18.100;2024-02-14T10:57:27;100493.28;;;13.30;41.19
84245;BME280;74383;44.552;18.100;2024-02-14T10:59:54;100494.47;;;13.41;40.79
84245;BME280;74383;44.552;18.100;2024-02-14T11:02:22;100494.81;;;13.51;41.13
84245;BME280;74383;44.552;18.100;2024-02-14T11:04:49;100495.63;;;13.58;40.05
84245;BME280;74383;44.552;18.100;2024-02-14T11:07:20;100493.91;;;13.70;39.84
84245;BME280;74383;44.552;18.100;2024-02-14T11:09:48;100493.31;;;13.68;40.64
84245;BME280;74383;44.552;18.100;2024-02-14T11:12:14;100495.72;;;13.76;41.78
84245;BME280;74383;44.552;18.100;2024-02-14T11:14:42;100499.31;;;14.20;40.19
84245;BME280;74383;44.552;18.100;2024-02-14T11:17:09;100488.47;;;14.46;41.37
84245;BME280;74383;44.552;18.100;2024-02-14T11:19:35;100489.06;;;14.66;41.00
84245;BME280;74383;44.552;18.100;2024-02-14T11:22:20;100482.56;;;14.80;42.55
84245;BME280;74383;44.552;18.100;2024-02-14T11:24:47;100486.88;;;14.32;41.05
84245;BME280;74383;44.552;18.100;2024-02-14T11:27:14;100487.22;;;14.17;41.87
84245;BME280;74383;44.552;18.100;2024-02-14T11:29:40;100480.94;;;14.30;41.66
84245;BME280;74383;44.552;18.100;2024-02-14T11:32:11;100481.06;;;14.17;42.05
84245;BME280;74383;44.552;18.100;2024-02-14T11:34:37;100473.19;;;14.71;40.42
84245;BME280;74383;44.552;18.100;2024-02-14T11:37:03;100464.44;;;15.00;41.07
84245;BME280;74383;44.552;18.100;2024-02-14T11:39:30;100461.53;;;15.20;39.45
84245;BME280;74383;44.552;18.100;2024-02-14T11:41:58;100459.66;;;15.69;38.57
84245;BME280;74383;44.552;18.100;2024-02-14T11:44:25;100460.03;;;15.72;36.93
84245;BME280;74383;44.552;18.100;2024-02-14T11:46:51;100460.41;;;15.87;37.34
84245;BME280;74383;44.552;18.100;2024-02-14T11:49:17;100453.72;;;16.20;35.67
84245;BME280;74383;44.552;18.100;2024-02-14T11:51:42;100443.19;;;16.06;35.27
84245;BME280;74383;44.552;18.100;2024-02-14T11:54:09;100440.56;;;16.30;37.01
84245;BME280;74383;44.552;18.100;2024-02-14T11:56:38;100437.88;;;16.53;34.80
84245;BME280;74383;44.552;18.100;2024-02-14T11:59:05;100441.47;;;16.47;33.26
84245;BME280;74383;44.552;18.100;2024-02-14T12:01:35;100438.81;;;16.47;34.28
84245;BME280;74383;44.552;18.100;2024-02-14T12:04:04;100444.06;;;16.53;32.49
84245;BME280;74383;44.552;18.100;2024-02-14T12:06:31;100439.28;;;16.09;35.74
84245;BME280;74383;44.552;18.100;2024-02-14T12:09:03;100436.63;;;16.55;33.72
84245;BME280;74383;44.552;18.100;2024-02-14T12:11:38;100443.19;;;16.99;31.63
84245;BME280;74383;44.552;18.100;2024-02-14T12:14:08;100440.91;;;17.19;34.97
84245;BME280;74383;44.552;18.100;2024-02-14T12:16:35;100435.91;;;16.60;34.04
84245;BME280;74383;44.552;18.100;2024-02-14T12:19:06;100439.63;;;17.22;32.83
84245;BME280;74383;44.552;18.100;2024-02-14T12:21:38;100429.41;;;16.56;34.51
84245;BME280;74383;44.552;18.100;2024-02-14T12:24:08;100434.81;;;17.52;33.79
84245;BME280;74383;44.552;18.100;2024-02-14T12:26:36;100427.69;;;17.58;32.98
84245;BME280;74383;44.552;18.100;2024-02-14T12:29:03;100433.34;;;17.45;32.06
84245;BME280;74383;44.552;18.100;2024-02-14T12:31:33;100439.94;;;17.54;33.33
84245;BME280;74383;44.552;18.100;2024-02-14T12:34:02;100430.38;;;17.30;32.99
84245;BME280;74383;44.552;18.100;2024-02-14T12:36:28;100433.22;;;16.72;34.11
84245;BME280;74383;44.552;18.100;2024-02-14T12:38:57;100432.41;;;17.11;33.47
84245;BME280;74383;44.552;18.100;2024-02-14T12:41:23;100436.69;;;17.23;33.59
84245;BME280;74383;44.552;18.100;2024-02-14T12:43:52;100434.59;;;16.86;31.12
84245;BME280;74383;44.552;18.100;2024-02-14T12:46:19;100436.59;;;16.44;32.54